Time;durP1;ratioP1;P1;durP2;ratioP2;P2;SDS_P1;SDS_P2;PMS_P1;PMS_P2;Temp;Humidity;BMP_temperature;BMP_pressure;BME280_temperature;BME280_humidity;BME280_pressure;Samples;Min_cycle;Max_cycle;Signal;HPM_P1;HPM_P2
2022/03/16 00:02:51;;;;;;;10.43;7.87;;;16.20;53.80;;;;;;5234600;28;20235;-71
2022/03/16 00:05:43;;;;;;;11.90;8.73;;;16.10;53.80;;;;;;5229432;28;20723;-72
2022/03/16 00:08:35;;;;;;;12.77;9.17;;;16.20;53.80;;;;;;5229810;28;20300;-71
2022/03/16 00:11:27;;;;;;;15.07;9.57;;;16.20;53.80;;;;;;5229594;28;20354;-70
2022/03/16 00:14:21;;;;;;;10.93;8.60;;;16.10;53.80;;;;;;5259527;22;20844;-66
2022/03/16 00:17:13;;;;;;;13.73;8.87;;;16.10;53.90;;;;;;5241294;28;20274;-67
2022/03/16 00:20:07;;;;;;;10.97;8.37;;;16.10;53.90;;;;;;5244929;28;20192;-67
2022/03/16 00:22:59;;;;;;;13.57;8.93;;;16.10;53.90;;;;;;5240476;28;20200;-67
2022/03/16 00:25:51;;;;;;;17.63;9.90;;;16.10;54.20;;;;;;5232207;28;20194;-67
2022/03/16 00:28:43;;;;;;;11.33;9.27;;;16.10;54.20;;;;;;5231644;28;20188;-67
2022/03/16 00:31:37;;;;;;;12.60;9.40;;;16.10;54.10;;;;;;5208166;28;20195;-67
2022/03/16 00:34:29;;;;;;;12.00;9.03;;;16.10;54.10;;;;;;5208947;28;20306;-67
2022/03/16 00:37:22;;;;;;;13.20;9.57;;;16.10;54.00;;;;;;5219982;28;20210;-67
2022/03/16 00:40:14;;;;;;;15.40;8.83;;;16.10;54.10;;;;;;5226436;28;20602;-67
2022/03/16 00:43:06;;;;;;;12.23;9.33;;;16.00;54.10;;;;;;5224529;28;20686;-67
2022/03/16 00:45:58;;;;;;;13.73;9.93;;;16.10;54.20;;;;;;5209084;28;20668;-67
2022/03/16 00:48:52;;;;;;;14.40;8.77;;;16.10;54.20;;;;;;5234065;28;20750;-67
2022/03/16 00:51:44;;;;;;;13.37;9.60;;;16.00;54.30;;;;;;5227908;28;20275;-67
2022/03/16 00:54:36;;;;;;;13.00;9.63;;;16.00;54.40;;;;;;5214076;28;20279;-67
2022/03/16 00:57:28;;;;;;;13.93;9.53;;;16.00;54.50;;;;;;5208766;28;20283;-67
2022/03/16 01:00:20;;;;;;;15.87;9.77;;;16.00;54.90;;;;;;5217523;28;20391;-67
2022/03/16 01:03:13;;;;;;;12.13;9.27;;;16.00;54.30;;;;;;5215005;28;20318;-67
2022/03/16 01:06:12;;;;;;;13.07;9.00;;;16.00;54.30;;;;;;5215643;28;20251;-67
2022/03/16 01:09:04;;;;;;;13.90;8.83;;;16.00;54.20;;;;;;5218980;28;20198;-67
2022/03/16 01:11:56;;;;;;;13.13;9.27;;;16.00;54.30;;;;;;5226262;28;20288;-67
2022/03/16 01:14:49;;;;;;;12.23;9.30;;;16.00;54.30;;;;;;5207532;28;20319;-67
2022/03/16 01:17:41;;;;;;;11.87;8.77;;;16.00;54.30;;;;;;5207821;28;20639;-67
2022/03/16 01:20:33;;;;;;;12.33;8.77;;;16.00;54.30;;;;;;5207962;28;20251;-67
2022/03/16 01:23:27;;;;;;;11.90;8.97;;;16.00;54.40;;;;;;5228121;28;20351;-67
2022/03/16 01:26:19;;;;;;;11.40;8.73;;;16.00;54.40;;;;;;5210839;28;20198;-67
2022/03/16 01:29:11;;;;;;;11.37;8.90;;;16.00;54.50;;;;;;5228421;28;20272;-67
2022/03/16 01:32:04;;;;;;;14.27;8.40;;;16.00;54.40;;;;;;5208124;28;20807;-67
2022/03/16 01:34:56;;;;;;;13.00;8.90;;;16.00;54.50;;;;;;5208255;28;20222;-67
2022/03/16 01:37:49;;;;;;;11.40;8.80;;;16.00;54.50;;;;;;5207982;28;20286;-67
2022/03/16 01:40:43;;;;;;;12.30;8.47;;;16.00;54.50;;;;;;5208068;28;20281;-67
2022/03/16 01:43:35;;;;;;;12.87;8.73;;;16.00;54.60;;;;;;5213341;28;20760;-66
2022/03/16 01:46:27;;;;;;;11.90;7.97;;;16.00;54.80;;;;;;5225488;28;20576;-67
2022/03/16 01:49:19;;;;;;;10.50;7.47;;;16.00;54.90;;;;;;5225111;28;20247;-67
2022/03/16 01:52:14;;;;;;;10.77;7.77;;;16.00;55.00;;;;;;5217857;28;20237;-67
2022/03/16 01:55:08;;;;;;;9.17;7.03;;;16.00;55.00;;;;;;5207113;28;20600;-67
2022/03/16 01:58:02;;;;;;;9.80;7.53;;;16.00;55.00;;;;;;5207102;28;20198;-67
2022/03/16 02:00:54;;;;;;;10.77;7.67;;;15.90;55.00;;;;;;5218945;28;20691;-68
2022/03/16 02:03:46;;;;;;;11.37;8.30;;;16.00;54.90;;;;;;5232651;28;20214;-67
2022/03/16 02:06:38;;;;;;;13.07;8.40;;;16.00;54.80;;;;;;5225063;28;20280;-67
2022/03/16 02:09:30;;;;;;;9.43;7.80;;;16.00;54.70;;;;;;5226289;28;20272;-67
2022/03/16 02:12:23;;;;;;;11.00;8.63;;;16.00;54.70;;;;;;5206337;28;20554;-67
2022/03/16 02:15:17;;;;;;;10.33;7.67;;;16.00;54.60;;;;;;5207014;28;20715;-67
2022/03/16 02:18:09;;;;;;;9.97;7.90;;;16.00;54.50;;;;;;5206125;28;20276;-67
2022/03/16 02:21:02;;;;;;;11.50;8.33;;;16.00;54.50;;;;;;5207850;28;20224;-66
2022/03/16 02:23:56;;;;;;;9.53;7.83;;;16.00;54.50;;;;;;5225778;28;20240;-67
2022/03/16 02:26:48;;;;;;;11.40;8.10;;;16.00;54.40;;;;;;5226501;28;20604;-67
2022/03/16 02:29:40;;;;;;;12.57;7.63;;;16.00;54.20;;;;;;5238262;28;20237;-66
2022/03/16 02:32:32;;;;;;;9.77;7.60;;;16.00;54.20;;;;;;5217931;28;20245;-66
2022/03/16 02:35:25;;;;;;;9.63;7.87;;;15.90;54.10;;;;;;5224557;28;20226;-67
2022/03/16 02:38:17;;;;;;;8.27;7.17;;;15.90;54.10;;;;;;5225591;28;20204;-67
2022/03/16 02:41:10;;;;;;;10.37;8.23;;;15.90;54.10;;;;;;5223409;28;20245;-66
2022/03/16 02:44:03;;;;;;;8.77;7.33;;;15.90;53.80;;;;;;5231084;28;20225;-67
2022/03/16 02:46:55;;;;;;;9.03;7.50;;;15.90;53.70;;;;;;5225673;28;20197;-67
2022/03/16 02:49:48;;;;;;;10.47;7.20;;;15.90;53.50;;;;;;5213173;28;20314;-67
2022/03/16 02:52:41;;;;;;;10.10;7.80;;;15.90;53.30;;;;;;5211569;28;20199;-66
2022/03/16 02:55:33;;;;;;;8.70;6.87;;;15.90;53.10;;;;;;5231740;28;20205;-67
2022/03/16 02:58:27;;;;;;;9.93;7.00;;;15.90;52.90;;;;;;5226444;28;20348;-67
2022/03/16 03:01:19;;;;;;;9.53;7.33;;;15.90;52.80;;;;;;5213528;28;20193;-67
2022/03/16 03:04:11;;;;;;;8.93;7.03;;;15.90;52.70;;;;;;5206509;28;20220;-67
2022/03/16 03:07:04;;;;;;;9.27;7.20;;;15.90;52.60;;;;;;5206812;28;20277;-67
2022/03/16 03:09:56;;;;;;;10.60;6.90;;;15.90;52.40;;;;;;5225040;28;20250;-66
2022/03/16 03:12:48;;;;;;;7.83;7.00;;;15.90;52.30;;;;;;5223396;28;20283;-66
2022/03/16 03:15:42;;;;;;;7.20;6.23;;;15.80;52.20;;;;;;5223629;28;20342;-66
2022/03/16 03:18:35;;;;;;;8.93;6.77;;;15.80;52.30;;;;;;5206864;28;20597;-66
2022/03/16 03:21:27;;;;;;;8.83;7.27;;;15.80;52.50;;;;;;5206062;28;20239;-66
2022/03/16 03:24:20;;;;;;;8.17;6.90;;;15.80;52.30;;;;;;5225377;28;20608;-66
2022/03/16 03:27:12;;;;;;;10.03;7.20;;;15.80;52.10;;;;;;5214895;28;20203;-66
2022/03/16 03:30:06;;;;;;;8.43;6.67;;;15.80;51.80;;;;;;5204472;28;20776;-66
2022/03/16 03:32:59;;;;;;;8.70;6.40;;;15.80;51.70;;;;;;5205020;28;20798;-67
2022/03/16 03:35:51;;;;;;;7.17;6.47;;;15.70;51.70;;;;;;5204641;28;20335;-67
2022/03/16 03:38:43;;;;;;;6.77;6.07;;;15.70;51.70;;;;;;5205497;28;20212;-67
2022/03/16 03:41:36;;;;;;;9.63;6.90;;;15.70;51.70;;;;;;5206119;28;20340;-66
2022/03/16 03:44:28;;;;;;;8.50;6.70;;;15.70;51.70;;;;;;5210554;28;20273;-66
2022/03/16 03:47:20;;;;;;;7.53;6.50;;;15.70;51.50;;;;;;5224716;28;20268;-66
2022/03/16 03:50:13;;;;;;;7.97;6.23;;;15.70;51.10;;;;;;5229759;28;20237;-66
2022/03/16 03:53:06;;;;;;;6.60;5.80;;;15.70;51.10;;;;;;5222454;28;20247;-65
2022/03/16 03:55:58;;;;;;;10.07;7.00;;;15.70;50.90;;;;;;5228984;28;20201;-67
2022/03/16 03:58:50;;;;;;;7.67;6.30;;;15.70;50.90;;;;;;5224597;28;20757;-67
2022/03/16 04:01:42;;;;;;;8.17;6.37;;;15.70;50.80;;;;;;5216807;28;20266;-66
2022/03/16 04:04:34;;;;;;;8.80;6.33;;;15.70;50.70;;;;;;5229483;28;20214;-67
2022/03/16 04:07:28;;;;;;;6.97;6.23;;;15.70;50.60;;;;;;5204420;28;20564;-67
2022/03/16 04:10:20;;;;;;;8.07;6.00;;;15.60;50.70;;;;;;5204128;28;20255;-67
2022/03/16 04:13:12;;;;;;;7.37;6.53;;;15.60;50.50;;;;;;5208812;28;20217;-67
2022/03/16 04:16:04;;;;;;;9.03;7.30;;;15.60;50.40;;;;;;5223083;28;20205;-67
2022/03/16 04:18:56;;;;;;;8.13;6.57;;;15.60;50.40;;;;;;5224955;28;20579;-67
2022/03/16 04:21:49;;;;;;;8.63;6.80;;;15.60;50.30;;;;;;5224055;28;20258;-67
2022/03/16 04:24:42;;;;;;;8.30;6.90;;;15.60;50.30;;;;;;5224647;28;20216;-67
2022/03/16 04:27:34;;;;;;;8.17;6.60;;;15.60;50.10;;;;;;5206088;28;20220;-67
2022/03/16 04:30:26;;;;;;;9.53;6.70;;;15.60;49.80;;;;;;5213086;28;20189;-67
2022/03/16 04:33:18;;;;;;;8.83;7.27;;;15.60;50.30;;;;;;5204306;28;20300;-67
2022/03/16 04:36:11;;;;;;;8.90;6.67;;;15.60;49.60;;;;;;5205706;28;20192;-67
2022/03/16 04:39:03;;;;;;;7.50;5.90;;;15.60;49.60;;;;;;5204898;28;20216;-67
2022/03/16 04:41:57;;;;;;;7.57;6.50;;;15.60;49.70;;;;;;5223105;28;20282;-67
2022/03/16 04:44:49;;;;;;;8.53;6.77;;;15.60;49.60;;;;;;5223737;28;20232;-67
2022/03/16 04:47:41;;;;;;;7.67;6.53;;;15.60;49.50;;;;;;5224958;28;20672;-67
2022/03/16 04:50:33;;;;;;;8.40;6.47;;;15.60;49.50;;;;;;5223950;28;20729;-66
2022/03/16 04:53:25;;;;;;;7.77;6.23;;;15.60;49.60;;;;;;5224258;28;20217;-67
2022/03/16 04:56:17;;;;;;;7.87;6.17;;;15.60;49.70;;;;;;5217385;28;20251;-67
2022/03/16 04:59:11;;;;;;;8.67;6.77;;;15.60;49.90;;;;;;5227749;28;20778;-67
2022/03/16 05:02:03;;;;;;;8.33;6.23;;;15.60;50.20;;;;;;5218135;28;20267;-66
2022/03/16 05:04:55;;;;;;;8.10;6.30;;;15.60;50.40;;;;;;5207744;28;20258;-67
2022/03/16 05:07:48;;;;;;;7.60;6.23;;;15.60;50.40;;;;;;5208881;28;20290;-67
2022/03/16 05:10:40;;;;;;;9.50;6.53;;;15.60;50.40;;;;;;5212519;28;20205;-67
2022/03/16 05:13:32;;;;;;;9.10;6.00;;;15.60;50.70;;;;;;5213615;28;20276;-66
2022/03/16 05:16:25;;;;;;;7.33;6.13;;;15.60;50.80;;;;;;5208443;28;20200;-67
2022/03/16 05:19:17;;;;;;;7.43;6.03;;;15.60;51.00;;;;;;5207308;28;20221;-67
2022/03/16 05:22:09;;;;;;;9.23;6.23;;;15.60;51.10;;;;;;5207835;28;20820;-67
2022/03/16 05:25:02;;;;;;;9.90;6.70;;;15.60;51.10;;;;;;5213856;28;20339;-67
2022/03/16 05:27:54;;;;;;;8.63;6.13;;;15.60;51.00;;;;;;5208449;28;20229;-67
2022/03/16 05:30:46;;;;;;;9.87;6.20;;;15.60;50.90;;;;;;5208878;28;20277;-67
2022/03/16 05:33:40;;;;;;;7.77;6.20;;;15.60;50.90;;;;;;5236104;28;20299;-66
2022/03/16 05:36:32;;;;;;;10.57;5.87;;;15.60;50.90;;;;;;5226774;28;20231;-67
2022/03/16 05:39:24;;;;;;;10.10;6.50;;;15.60;50.80;;;;;;5225581;28;20286;-67
2022/03/16 05:42:16;;;;;;;8.93;5.97;;;15.60;50.80;;;;;;5225482;28;20715;-66
2022/03/16 05:45:10;;;;;;;8.83;5.60;;;15.60;50.60;;;;;;5225103;28;20302;-67
2022/03/16 05:48:02;;;;;;;7.87;6.23;;;15.60;50.50;;;;;;5227690;28;20225;-67
2022/03/16 05:50:56;;;;;;;9.17;5.70;;;15.60;50.40;;;;;;5239902;28;20311;-67
2022/03/16 05:53:48;;;;;;;8.27;5.80;;;15.60;50.30;;;;;;5232832;28;20217;-67
2022/03/16 05:56:40;;;;;;;8.70;6.37;;;15.60;50.20;;;;;;5234310;28;20199;-67
2022/03/16 05:59:32;;;;;;;8.60;6.50;;;15.60;50.10;;;;;;5247051;28;20219;-66
2022/03/16 06:02:24;;;;;;;8.90;6.17;;;15.60;50.20;;;;;;5226445;28;20719;-67
2022/03/16 06:05:17;;;;;;;8.90;5.63;;;15.60;50.40;;;;;;5218502;28;20596;-66
2022/03/16 06:08:11;;;;;;;9.20;6.40;;;15.60;50.60;;;;;;5207355;28;20706;-67
2022/03/16 06:11:03;;;;;;;11.10;6.20;;;15.60;50.60;;;;;;5207890;28;20253;-67
2022/03/16 06:13:55;;;;;;;8.87;6.47;;;15.60;50.50;;;;;;5237535;22;21009;-70
2022/03/16 06:16:47;;;;;;;9.57;6.33;;;15.60;50.40;;;;;;5222220;28;20833;-70
2022/03/16 06:19:39;;;;;;;8.23;6.10;;;15.60;50.40;;;;;;5221346;28;20216;-70
2022/03/16 06:22:31;;;;;;;8.07;6.40;;;15.60;50.50;;;;;;5214278;28;20244;-69
2022/03/16 06:25:25;;;;;;;9.87;6.23;;;15.60;50.60;;;;;;5219125;28;20699;-71
2022/03/16 06:28:17;;;;;;;9.13;5.97;;;15.60;50.70;;;;;;5234354;28;20208;-70
2022/03/16 06:31:09;;;;;;;9.73;6.90;;;15.60;50.80;;;;;;5219364;28;20271;-70
2022/03/16 06:34:02;;;;;;;8.63;6.30;;;15.60;50.80;;;;;;5207169;28;20301;-70
2022/03/16 06:36:54;;;;;;;7.23;6.20;;;15.60;50.80;;;;;;5225787;28;20261;-70
2022/03/16 06:39:47;;;;;;;8.57;6.53;;;15.60;50.80;;;;;;5225586;28;20703;-70
2022/03/16 06:42:48;;;;;;;9.30;6.27;;;15.60;51.00;;;;;;5216140;28;20338;-70
2022/03/16 06:45:40;;;;;;;9.70;6.60;;;15.60;51.10;;;;;;5225745;28;20211;-70
2022/03/16 06:48:32;;;;;;;10.60;6.60;;;15.60;51.30;;;;;;5226519;28;20196;-69
2022/03/16 06:51:24;;;;;;;11.77;7.23;;;15.60;51.50;;;;;;5225305;28;20735;-70
2022/03/16 06:54:16;;;;;;;9.67;7.07;;;15.70;51.80;;;;;;5219019;28;20690;-70
2022/03/16 06:57:09;;;;;;;11.07;7.80;;;15.60;51.90;;;;;;5220375;28;20668;-70
2022/03/16 07:00:03;;;;;;;10.83;8.10;;;15.60;52.70;;;;;;5216864;28;20248;-70
2022/03/16 07:02:56;;;;;;;8.90;6.47;;;15.60;52.20;;;;;;5216577;28;20279;-70
2022/03/16 07:05:49;;;;;;;10.20;7.30;;;15.60;52.30;;;;;;5217676;28;20814;-71
2022/03/16 07:08:41;;;;;;;11.87;6.77;;;15.60;52.50;;;;;;5216378;28;20202;-71
2022/03/16 07:11:33;;;;;;;10.07;7.03;;;15.60;52.60;;;;;;5215726;28;20279;-70
2022/03/16 07:14:31;;;;;;;9.90;6.90;;;15.60;52.70;;;;;;5219461;28;20739;-69
2022/03/16 07:17:25;;;;;;;11.10;7.47;;;15.60;52.80;;;;;;5216317;28;20215;-69
2022/03/16 07:20:17;;;;;;;11.83;8.23;;;15.60;52.80;;;;;;5217537;28;20334;-66
2022/03/16 07:23:11;;;;;;;11.47;8.03;;;15.50;53.00;;;;;;5224717;28;20645;-66
2022/03/16 07:26:04;;;;;;;11.60;8.83;;;15.30;53.40;;;;;;5225502;28;20208;-66
2022/03/16 07:28:56;;;;;;;12.67;8.20;;;15.10;53.90;;;;;;5225377;28;20239;-67
2022/03/16 07:31:48;;;;;;;14.57;9.03;;;15.00;54.40;;;;;;5242074;28;20227;-66
2022/03/16 07:34:43;;;;;;;14.33;8.73;;;14.90;54.80;;;;;;5245389;28;20736;-67
2022/03/16 07:37:35;;;;;;;12.57;8.17;;;14.80;55.10;;;;;;5245726;28;20196;-66
2022/03/16 07:40:28;;;;;;;12.03;7.70;;;14.80;55.30;;;;;;5245480;28;20244;-66
2022/03/16 07:43:21;;;;;;;13.23;8.63;;;14.80;55.50;;;;;;5246101;28;20290;-65
2022/03/16 07:46:13;;;;;;;11.43;8.57;;;14.80;55.60;;;;;;5246672;28;20217;-67
2022/03/16 07:49:05;;;;;;;11.07;8.10;;;14.80;55.90;;;;;;5230727;28;20683;-67
2022/03/16 07:51:59;;;;;;;11.90;7.93;;;14.70;56.10;;;;;;5216910;28;20272;-68
2022/03/16 07:54:51;;;;;;;10.73;5.97;;;14.80;56.40;;;;;;5224926;28;20638;-66
2022/03/16 07:57:44;;;;;;;10.80;5.70;;;14.90;56.60;;;;;;5223622;28;20662;-66
2022/03/16 08:00:36;;;;;;;9.73;6.30;;;15.00;56.40;;;;;;5212999;28;20209;-69
2022/03/16 08:03:28;;;;;;;10.60;5.40;;;15.20;56.30;;;;;;5222889;28;20323;-68
2022/03/16 08:06:20;;;;;;;7.10;4.43;;;15.30;55.90;;;;;;5218013;28;20715;-71
2022/03/16 08:09:16;;;;;;;6.40;4.53;;;15.40;55.80;;;;;;5223501;28;20276;-69
2022/03/16 08:12:08;;;;;;;7.03;4.00;;;15.60;55.70;;;;;;5223671;28;20199;-70
2022/03/16 08:15:01;;;;;;;4.77;3.23;;;15.70;55.60;;;;;;5222195;28;20850;-70
2022/03/16 08:17:53;;;;;;;12.67;3.87;;;15.80;55.50;;;;;;5224182;28;20676;-69
2022/03/16 08:20:45;;;;;;;5.43;3.53;;;15.80;55.40;;;;;;5224739;28;20212;-69
2022/03/16 08:23:37;;;;;;;4.23;3.03;;;16.00;55.40;;;;;;5224285;28;20197;-70
2022/03/16 08:26:31;;;;;;;4.33;2.83;;;16.00;55.30;;;;;;5225494;28;20232;-69
2022/03/16 08:29:23;;;;;;;5.80;2.87;;;16.10;55.20;;;;;;5229025;28;20197;-70
2022/03/16 08:32:15;;;;;;;4.27;2.90;;;16.10;55.20;;;;;;5227978;28;20193;-69
2022/03/16 08:35:08;;;;;;;3.87;2.60;;;16.10;55.10;;;;;;5228301;28;20213;-70
2022/03/16 08:38:00;;;;;;;3.93;2.67;;;16.20;55.70;;;;;;5247208;28;20586;-68
2022/03/16 08:40:53;;;;;;;5.23;3.10;;;16.20;55.10;;;;;;5238159;28;20292;-70
2022/03/16 08:43:47;;;;;;;3.50;2.27;;;16.30;55.10;;;;;;5228401;28;20282;-67
2022/03/16 08:46:39;;;;;;;3.80;2.40;;;16.30;55.10;;;;;;5226775;28;20614;-68
2022/03/16 08:49:31;;;;;;;3.13;2.47;;;16.30;55.00;;;;;;5228055;28;20189;-68
2022/03/16 08:52:24;;;;;;;3.43;2.53;;;16.40;55.10;;;;;;5227385;28;20197;-69
2022/03/16 08:55:16;;;;;;;3.90;2.70;;;16.40;55.10;;;;;;5220991;28;20242;-69
2022/03/16 08:58:08;;;;;;;4.53;2.37;;;16.40;55.10;;;;;;5227592;28;20660;-69
2022/03/16 09:01:02;;;;;;;3.07;2.27;;;16.40;55.10;;;;;;5227498;28;20228;-67
2022/03/16 09:03:54;;;;;;;4.20;2.50;;;16.40;55.00;;;;;;5227548;28;20600;-69
2022/03/16 09:06:46;;;;;;;3.67;2.50;;;16.50;55.00;;;;;;5227648;28;20216;-68
2022/03/16 09:09:38;;;;;;;3.83;2.90;;;16.50;55.00;;;;;;5226796;28;20723;-69
2022/03/16 09:12:31;;;;;;;3.77;2.40;;;16.50;55.00;;;;;;5227373;28;20200;-68
2022/03/16 09:15:23;;;;;;;3.27;2.20;;;16.50;55.00;;;;;;5227474;28;20271;-69
2022/03/16 09:18:18;;;;;;;4.10;2.90;;;16.50;55.00;;;;;;5227110;28;20276;-69
2022/03/16 09:21:11;;;;;;;5.30;3.20;;;16.50;55.10;;;;;;5213944;28;20622;-68
2022/03/16 09:24:03;;;;;;;3.37;2.23;;;16.50;54.90;;;;;;5226967;28;20264;-68
2022/03/16 09:26:59;;;;;;;3.10;2.33;;;16.50;55.00;;;;;;5224897;28;20204;-69
2022/03/16 09:29:53;;;;;;;7.03;2.57;;;16.60;55.10;;;;;;5227072;28;20250;-69
2022/03/16 09:32:46;;;;;;;4.00;2.20;;;16.60;55.10;;;;;;5225948;28;20193;-70
2022/03/16 09:35:39;;;;;;;4.03;2.40;;;16.60;55.10;;;;;;5226532;28;20228;-71
2022/03/16 09:38:32;;;;;;;3.07;2.10;;;16.60;55.20;;;;;;5226289;28;20209;-70
2022/03/16 09:41:25;;;;;;;5.43;2.30;;;16.60;55.10;;;;;;5226703;28;20213;-70
2022/03/16 09:44:18;;;;;;;3.37;2.23;;;16.60;55.10;;;;;;5226680;28;20699;-70
2022/03/16 09:47:13;;;;;;;3.10;2.50;;;16.70;55.20;;;;;;5226749;28;20200;-71
2022/03/16 09:50:06;;;;;;;3.97;2.60;;;16.70;55.30;;;;;;5225965;28;20582;-71
2022/03/16 09:53:00;;;;;;;3.50;2.20;;;16.70;55.20;;;;;;5226455;28;20186;-72
2022/03/16 09:55:52;;;;;;;3.37;2.40;;;16.60;55.20;;;;;;5226624;28;20669;-71
2022/03/16 09:58:44;;;;;;;3.40;2.03;;;16.70;55.20;;;;;;5206481;28;20665;-72
2022/03/16 10:01:37;;;;;;;6.13;2.90;;;16.70;55.20;;;;;;5205347;28;20664;-71
2022/03/16 10:04:30;;;;;;;4.77;2.90;;;16.70;55.20;;;;;;5220696;28;20225;-66
2022/03/16 10:07:28;;;;;;;12.17;6.13;;;16.60;54.50;;;;;;5211744;28;20201;-66
2022/03/16 10:13:40;;;;;;;5.67;3.10;;;16.60;54.30;;;;;;5226668;28;20205;-66
2022/03/16 10:17:43;;;;;;;6.13;3.07;;;16.60;55.10;;;;;;5226526;28;20208;-66
2022/03/16 10:19:45;;;;;;;3.57;2.80;;;16.50;55.40;;;;;;5225528;28;20208;-66
2022/03/16 10:22:41;;;;;;;5.50;3.20;;;16.50;55.40;;;;;;5226306;28;20209;-66
2022/03/16 10:25:36;;;;;;;7.10;2.90;;;16.50;55.50;;;;;;5225197;28;20213;-67
2022/03/16 10:28:30;;;;;;;5.47;2.80;;;16.50;55.50;;;;;;5226079;28;20723;-66
2022/03/16 10:31:22;;;;;;;5.70;2.60;;;16.50;55.50;;;;;;5225928;28;20664;-66
2022/03/16 10:34:14;;;;;;;4.77;2.30;;;16.50;55.60;;;;;;5225544;28;20218;-66
2022/03/16 10:37:19;;;;;;;5.03;2.63;;;16.50;55.60;;;;;;5225719;28;20189;-66
2022/03/16 10:40:18;;;;;;;4.07;2.73;;;16.50;55.60;;;;;;5225318;28;20197;-66
2022/03/16 10:46:35;;;;;;;4.50;2.27;;;16.50;56.20;;;;;;5205361;28;20205;-66
2022/03/16 10:49:30;;;;;;;3.63;2.30;;;16.60;55.60;;;;;;5221154;28;20204;-66
2022/03/16 10:52:22;;;;;;;3.60;2.70;;;16.60;55.70;;;;;;5225124;28;20232;-66
2022/03/16 10:55:15;;;;;;;4.27;2.13;;;16.60;55.70;;;;;;5224650;28;20763;-66
2022/03/16 10:58:08;;;;;;;4.00;2.43;;;16.60;55.70;;;;;;5225029;28;20204;-68
2022/03/16 11:01:02;;;;;;;3.20;2.00;;;16.50;55.70;;;;;;5224673;28;20213;-68
2022/03/16 11:03:58;;;;;;;3.80;2.10;;;16.60;55.80;;;;;;5225040;28;20221;-68
2022/03/16 11:06:51;;;;;;;3.47;2.10;;;16.60;55.80;;;;;;5225231;28;20545;-67
2022/03/16 11:09:43;;;;;;;3.43;2.07;;;16.60;55.80;;;;;;5225739;28;20204;-68
2022/03/16 11:15:46;;;;;;;3.80;2.30;;;16.60;55.80;;;;;;5225339;28;20205;-68
2022/03/16 11:18:40;;;;;;;2.47;1.70;;;16.60;55.80;;;;;;5225018;28;20196;-68
2022/03/16 11:21:44;;;;;;;3.33;1.60;;;16.60;55.80;;;;;;5224234;28;20359;-69
2022/03/16 11:24:39;;;;;;;2.43;1.70;;;16.70;55.80;;;;;;5223389;28;20239;-69
2022/03/16 11:27:40;;;;;;;3.03;1.93;;;16.70;55.80;;;;;;5225081;28;20193;-69
2022/03/16 11:30:36;;;;;;;2.53;1.73;;;16.70;55.80;;;;;;5225355;28;20295;-66
2022/03/16 11:33:28;;;;;;;2.60;1.67;;;16.70;55.80;;;;;;5222773;28;20668;-66
2022/03/16 11:36:38;;;;;;;4.53;2.03;;;16.70;55.90;;;;;;5224499;28;20576;-65
2022/03/16 11:39:42;;;;;;;2.73;1.80;;;16.70;55.70;;;;;;5231259;28;20566;-65
2022/03/16 11:42:34;;;;;;;3.53;2.07;;;16.70;55.70;;;;;;5236038;28;20204;-63
2022/03/16 11:45:36;;;;;;;3.93;2.00;;;16.70;55.60;;;;;;5231212;28;20219;-65
2022/03/16 11:48:44;;;;;;;4.93;2.17;;;16.70;55.60;;;;;;5222913;28;20196;-65
2022/03/16 11:51:43;;;;;;;3.17;1.83;;;16.70;55.50;;;;;;5224856;28;20189;-66
2022/03/16 11:54:43;;;;;;;3.80;1.73;;;16.70;55.70;;;;;;5224556;28;20315;-65
2022/03/16 11:57:37;;;;;;;3.67;1.70;;;16.70;55.80;;;;;;5223798;28;20765;-65
2022/03/16 12:00:35;;;;;;;2.83;1.83;;;16.70;55.80;;;;;;5227672;28;20189;-66
2022/03/16 12:03:27;;;;;;;3.00;1.73;;;16.70;55.80;;;;;;5228233;28;20188;-67
2022/03/16 12:06:20;;;;;;;2.77;1.63;;;16.70;55.80;;;;;;5228943;28;20201;-65
2022/03/16 12:09:18;;;;;;;3.57;1.80;;;16.70;55.80;;;;;;5228761;28;20193;-65
2022/03/16 12:15:29;;;;;;;2.33;1.50;;;16.70;55.70;;;;;;5229524;28;20216;-65
2022/03/16 12:18:25;;;;;;;4.40;1.63;;;16.70;55.70;;;;;;5229185;28;20197;-65
2022/03/16 12:21:27;;;;;;;2.40;1.40;;;16.70;55.80;;;;;;5228453;28;20205;-65
2022/03/16 12:30:58;;;;;;;1.57;1.30;;;16.70;55.90;;;;;;5226971;28;20195;-65
2022/03/16 12:33:53;;;;;;;3.13;1.50;;;16.70;55.80;;;;;;5228635;28;20299;-65
2022/03/16 12:36:45;;;;;;;1.70;1.27;;;16.60;55.80;;;;;;5228801;28;20204;-65
2022/03/16 12:39:46;;;;;;;2.80;1.60;;;16.70;55.90;;;;;;5228166;28;20204;-66
2022/03/16 12:42:38;;;;;;;3.70;1.50;;;16.70;55.90;;;;;;5228260;28;20215;-64
2022/03/16 12:45:31;;;;;;;3.30;1.57;;;16.70;55.90;;;;;;5227795;28;20213;-65
2022/03/16 12:48:24;;;;;;;2.27;1.40;;;16.70;55.90;;;;;;5227713;28;20579;-66
2022/03/16 12:51:33;;;;;;;1.87;1.30;;;16.60;55.90;;;;;;5227564;28;20201;-65
2022/03/16 12:54:30;;;;;;;2.40;1.50;;;16.70;56.00;;;;;;5206609;28;20723;-65
2022/03/16 12:57:25;;;;;;;2.03;1.30;;;16.60;56.00;;;;;;5207235;28;20197;-65
2022/03/16 13:00:17;;;;;;;2.37;1.20;;;16.60;56.00;;;;;;5209210;28;20744;-65
2022/03/16 13:03:14;;;;;;;1.87;1.30;;;16.70;56.10;;;;;;5227413;28;20236;-64
2022/03/16 13:06:13;;;;;;;2.03;1.20;;;16.70;56.10;;;;;;5228088;28;20550;-65
2022/03/16 13:09:07;;;;;;;1.40;1.20;;;16.70;56.20;;;;;;5227984;28;20660;-65
2022/03/16 13:12:05;;;;;;;1.60;1.17;;;16.60;56.10;;;;;;5227137;28;20202;-67
2022/03/16 13:14:58;;;;;;;1.43;0.97;;;16.60;56.10;;;;;;5227726;28;20289;-65
2022/03/16 13:17:51;;;;;;;2.20;1.33;;;16.70;56.20;;;;;;5226179;28;20424;-66
2022/03/16 13:20:43;;;;;;;2.20;1.17;;;16.60;56.30;;;;;;5226264;28;20198;-69
2022/03/16 13:23:36;;;;;;;2.47;1.40;;;16.70;56.40;;;;;;5227579;28;20225;-68
2022/03/16 13:26:29;;;;;;;2.93;1.00;;;16.70;56.50;;;;;;5228189;28;20331;-68
2022/03/16 13:29:22;;;;;;;2.60;1.27;;;16.80;56.60;;;;;;5206165;28;20815;-70
2022/03/16 13:32:15;;;;;;;1.90;1.40;;;16.80;56.60;;;;;;5223637;28;20201;-73
2022/03/16 13:35:13;;;;;;;3.27;1.33;;;16.80;56.70;;;;;;5226801;28;20302;-66
2022/03/16 13:38:05;;;;;;;1.20;0.90;;;16.90;56.60;;;;;;5226387;28;20197;-68
2022/03/16 13:41:10;;;;;;;1.40;1.00;;;16.90;56.70;;;;;;5225986;28;20197;-67
2022/03/16 13:44:04;;;;;;;7.17;1.53;;;16.90;56.70;;;;;;5227229;28;20269;-68
2022/03/16 13:46:56;;;;;;;4.05;1.20;;;16.90;56.70;;;;;;5225926;28;20518;-68
2022/03/16 13:49:51;;;;;;;1.30;0.90;;;17.00;56.90;;;;;;5226121;28;20189;-67
2022/03/16 13:52:43;;;;;;;1.83;1.00;;;17.00;56.30;;;;;;5226041;28;20193;-67
2022/03/16 13:55:35;;;;;;;3.10;1.10;;;17.00;56.20;;;;;;5226420;28;20224;-66
2022/03/16 13:58:27;;;;;;;2.57;1.10;;;17.10;56.30;;;;;;5226445;28;20197;-68
2022/03/16 14:01:21;;;;;;;2.50;0.90;;;17.00;56.20;;;;;;5226225;28;20211;-67
2022/03/16 14:04:19;;;;;;;2.30;1.10;;;17.00;56.10;;;;;;5226406;28;20608;-68
2022/03/16 14:07:20;;;;;;;2.10;1.10;;;17.00;56.00;;;;;;5226194;28;20200;-68
2022/03/16 14:10:13;;;;;;;2.80;1.30;;;17.00;56.00;;;;;;5226344;28;20705;-67
2022/03/16 14:13:06;;;;;;;1.43;1.03;;;17.00;55.90;;;;;;5225780;28;20223;-67
2022/03/16 14:16:12;;;;;;;4.23;0.93;;;17.00;56.00;;;;;;5205601;28;20202;-68
2022/03/16 14:19:24;;;;;;;2.20;1.00;;;17.00;55.90;;;;;;5205830;28;20209;-67
2022/03/16 14:22:16;;;;;;;1.80;1.10;;;17.00;55.80;;;;;;5203871;28;20293;-67
2022/03/16 14:25:20;;;;;;;1.73;1.10;;;17.00;55.80;;;;;;5209999;28;20213;-67
2022/03/16 14:28:12;;;;;;;1.90;1.23;;;17.00;55.80;;;;;;5218034;28;20193;-68
2022/03/16 14:31:07;;;;;;;0.80;0.73;;;17.00;55.80;;;;;;5225715;28;20215;-67
2022/03/16 14:33:59;;;;;;;2.17;0.93;;;17.00;55.70;;;;;;5226050;28;20220;-67
2022/03/16 14:36:52;;;;;;;1.87;0.93;;;17.00;55.60;;;;;;5225353;28;20662;-67
2022/03/16 14:39:44;;;;;;;1.73;1.07;;;17.00;55.50;;;;;;5225045;28;20197;-66
2022/03/16 14:42:38;;;;;;;2.67;1.00;;;17.00;55.50;;;;;;5224888;28;20213;-65
2022/03/16 14:45:31;;;;;;;1.50;0.87;;;17.00;55.50;;;;;;5226247;28;20217;-66
2022/03/16 14:48:23;;;;;;;2.10;0.87;;;17.00;55.50;;;;;;5225866;28;20197;-66
2022/03/16 14:51:15;;;;;;;1.00;0.70;;;17.00;55.40;;;;;;5225591;28;20197;-67
2022/03/16 14:54:08;;;;;;;1.13;0.87;;;17.00;55.40;;;;;;5225378;28;20216;-66
2022/03/16 14:57:00;;;;;;;1.17;0.80;;;17.00;55.40;;;;;;5224298;28;20216;-67
2022/03/16 14:59:55;;;;;;;1.27;0.90;;;17.00;55.30;;;;;;5225289;28;20193;-68
2022/03/16 15:02:48;;;;;;;1.30;1.07;;;17.00;55.30;;;;;;5224646;28;20228;-67
2022/03/16 15:05:41;;;;;;;3.50;0.90;;;17.00;55.30;;;;;;5219614;28;20295;-67
2022/03/16 15:08:36;;;;;;;1.47;1.03;;;17.00;55.20;;;;;;5208908;28;20193;-67
2022/03/16 15:11:28;;;;;;;1.13;0.83;;;17.00;55.20;;;;;;5225182;28;20228;-67
2022/03/16 15:14:20;;;;;;;1.40;0.90;;;17.00;55.20;;;;;;5225406;28;20225;-67
2022/03/16 15:17:13;;;;;;;1.73;0.90;;;17.00;55.20;;;;;;5225493;28;20204;-66
2022/03/16 15:20:07;;;;;;;2.03;1.00;;;17.00;55.30;;;;;;5225474;28;20201;-67